Saint-Eustache, Canada
Current Conditions -  °F | °C
As of 2:00 AM on Friday 31 Oct 2014 (Local Time) from CYMX Reporting Station
Overcast Overcast  
Wind Chill:   Ceiling: 4600
Heat Index:   Visibility: 25mi
Dew Point: -1°   Wind: 3mph
Humidity: 81%   Direction: 320°NW
Pressure: 30.03"   Gusts: NA
Location:  45.57°N, 73.9°W
Report Text: CYMX 310600Z 32003KT 25SM BKN046 OVC160 02/M01 A3003 RMK SC7AC1 SLP171
Loading
Personal Weather Stations






























Interactive Weather Map
Tropical Storm Tracking
New forecast layout! Learn more

10-Day Weather Forecast

Advertisements
Track Severe Weather on mobile